Warning: Javascript must be enabled to use all the features on this page!


Page Loading - Please Wait...

Click to hideNews Bulletins
  • Have your voice heard. Have a few minutes? We're surveying users about their experience with Water Data for the Nation (WDFN). Please take a few minutes to complete our online survey.
  • See the Water Data for the Nation Blog for the latest news and updates.

Peak Streamflow for the Nation

USGS 09147025 UNCOMPAHGRE RIVER BELOW RIDGWAY RESERVOIR, CO

Ouray County, Colorado
Hydrologic Unit Code 14020006
Latitude  38°14'26.0", Longitude 107°45'37.1" NAD83
Drainage area 265  square miles
Gage datum 6,650 feet above NGVD29
Output formats
Table
Graph
Tab-separated file
peakfq (watstore) format
Reselect output format
Water
Year
Date Gage
Height
(feet)
Stream-
flow
(cfs)
1989 1989-05-11 2.84 5156
1990 1990-06-13 3.56 1,1606
1991 1991-07-01 2.95 5716
1992 1992-07-27 3.08 7236
1993 1993-07-02 3.04 5946
1994 1994-07-30 3.06 6796
1995 1995-07-10 3.63 1,1206
1996 1996-06-29 3.06 6276
1997 1997-06-25 3.25 8216
1998 1998-07-13 3.00 6276
1999 1999-06-24 3.52 1,1306
2000 2000-05-31 3.25 8306
2001 2001-06-12 2.96 5906
2002 2002-06-12 2.41 2506
2003 2003-05-31 3.44 1,1006
2004 2004-05-14 2.79 4676
2005 2005-06-25 3.32 9126
2006 2006-06-16 3.06 6886
2007 2007-06-22 3.11 7326
2008 2008-07-01 3.19 7866
2009 2009-05-19 3.58 1,2006
2010 2010-06-09 3.87 1,4606
2011 2011-07-07 3.43 9786
2012 2012-05-01 3.32 8746
2013 2013-09-16 2.53 3146
2014 2014-03-26 3.17 7416
2015 2015-06-18 3.49 9856
2016 2016-06-14 3.28 7816
2017 2017-06-10 3.26 7646
2018 2018-05-17 2.52 2626
2019 2019-07-02 3.46 9806
2020 2020-07-09 2.67 3316
2021 2021-08-04 2.83 4436
?
  Peak Streamflow Qualification Codes.